^^
Grace C. Lehan Memorial Weather Station Historical Data
Daily Summary for December 03, 2021 Units:  English    Metric   Both
Daily Weekly Monthly Yearly
  High: Low: Average:
Temperature: 43.4 °F 36 °F 41 °F
Dew Point: 39.6 °F 21.8 °F 29.8 °F
Humidity: 91% 48.1% 65%
Wind Speed: 15.4mph 0mph 5mph
Wind Gust: 28mph - -
Wind- - WNW
Pressure: 29.97 in 29.54 in -
Precipitation: 0.00 in    
 
 
Tabular Data for December 03, 2021
Time Temperature Dew Point Pressure Wind Wind Speed Wind Gust Humidity Rainfall Rate (Hourly) solar
00:04 42 °F 39.6 °F 29.55 in West 0.6 mph 6 mph 91% 0.00 in 0 W/m2
00:09 42 °F 39.6 °F 29.55 in West 0.7 mph 4 mph 91% 0.00 in 0 W/m2
00:14 42 °F 39.6 °F 29.54 in West 0.4 mph 4 mph 91% 0.00 in 0 W/m2
00:19 41.9 °F 39.5 °F 29.55 in West 0.5 mph 4 mph 91% 0.00 in 0 W/m2
00:24 41.9 °F 39.5 °F 29.55 in West 1 mph 5 mph 91% 0.00 in 0 W/m2
00:29 41.9 °F 39.5 °F 29.56 in West 1.6 mph 7 mph 91% 0.00 in 0 W/m2
00:34 41.9 °F 39.3 °F 29.56 in WSW 1.3 mph 7 mph 90.4% 0.00 in 0 W/m2
00:39 41.9 °F 39.2 °F 29.56 in WSW 1.9 mph 6 mph 90% 0.00 in 0 W/m2
00:44 41.9 °F 39.2 °F 29.56 in WSW 2.4 mph 11 mph 90% 0.00 in 0 W/m2
00:49 41.9 °F 39.1 °F 29.56 in WSW 2.5 mph 12 mph 89.8% 0.00 in 0 W/m2
00:54 42 °F 39 °F 29.56 in WSW 2.1 mph 12 mph 89% 0.00 in 0 W/m2
00:59 42.1 °F 38.9 °F 29.57 in WSW 1.6 mph 12 mph 88.5% 0.00 in 0 W/m2
01:04 42.2 °F 38.9 °F 29.57 in West 1.6 mph 12 mph 88% 0.00 in 0 W/m2
01:09 42.4 °F 39.1 °F 29.57 in WSW 2.9 mph 10 mph 88% 0.00 in 0 W/m2
01:14 42.5 °F 39.2 °F 29.57 in West 1.4 mph 10 mph 88% 0.00 in 0 W/m2
01:19 42.5 °F 39.1 °F 29.57 in West 0.6 mph 10 mph 87.6% 0.00 in 0 W/m2
01:24 42.5 °F 38.9 °F 29.57 in WSW 0.8 mph 10 mph 87% 0.00 in 0 W/m2
01:29 42.4 °F 38.7 °F 29.57 in WSW 1.2 mph 10 mph 86.7% 0.00 in 0 W/m2
01:34 42.4 °F 38.5 °F 29.56 in West 0.4 mph 10 mph 86% 0.00 in 0 W/m2
01:39 42.3 °F 38.4 °F 29.57 in West 0.1 mph 5 mph 86% 0.00 in 0 W/m2
01:44 42.2 °F 38.3 °F 29.58 in Calm   5 mph 86% 0.00 in 0 W/m2
01:49 42 °F 37.9 °F 29.58 in West 0.5 mph 5 mph 85.2% 0.00 in 0 W/m2
01:54 41.9 °F 37.9 °F 29.59 in Calm   5 mph 85.4% 0.00 in 0 W/m2
01:59 41.9 °F 37.7 °F 29.59 in WSW 0.6 mph 6 mph 85% 0.00 in 0 W/m2
02:04 41.8 °F 37.6 °F 29.59 in West 0.3 mph 6 mph 85% 0.00 in 0 W/m2
02:09 41.8 °F 37.4 °F 29.60 in NW 0.8 mph 4 mph 84.2% 0.00 in 0 W/m2
02:14 41.9 °F 37.3 °F 29.60 in Calm   4 mph 83.6% 0.00 in 0 W/m2
02:19 42 °F 37.2 °F 29.60 in Calm   4 mph 83% 0.00 in 0 W/m2
02:24 42.1 °F 37 °F 29.60 in West 0.1 mph 4 mph 82.1% 0.00 in 0 W/m2
02:29 42.1 °F 36.9 °F 29.60 in Calm   4 mph 81.8% 0.00 in 0 W/m2
02:34 42.1 °F 36.7 °F 29.60 in West 0.1 mph 4 mph 81% 0.00 in 0 W/m2
02:39 42 °F 36.6 °F 29.60 in Calm   2 mph 81% 0.00 in 0 W/m2
02:44 42 °F 36.6 °F 29.60 in NW 0.4 mph 4 mph 81% 0.00 in 0 W/m2
02:49 41.9 °F 36.2 °F 29.60 in NNW 0.4 mph 4 mph 80% 0.00 in 0 W/m2
02:54 42 °F 36.3 °F 29.61 in NNW 0.1 mph 4 mph 80% 0.00 in 0 W/m2
02:59 41.9 °F 36.1 °F 29.61 in NW 2 mph 7 mph 79.7% 0.00 in 0 W/m2
03:04 41.9 °F 36 °F 29.61 in WNW 0.7 mph 7 mph 79.4% 0.00 in 0 W/m2
03:09 41.8 °F 35.8 °F 29.61 in WNW 0.9 mph 5 mph 79.2% 0.00 in 0 W/m2
03:14 41.6 °F 35.6 °F 29.61 in WNW 3.7 mph 12 mph 78.8% 0.00 in 0 W/m2
03:19 41.6 °F 35.3 °F 29.62 in WNW 1.5 mph 12 mph 78% 0.00 in 0 W/m2
03:24 41.6 °F 35.3 °F 29.62 in WNW 1.6 mph 12 mph 78% 0.00 in 0 W/m2
03:29 41.6 °F 35.2 °F 29.62 in West 1 mph 12 mph 78% 0.00 in 0 W/m2
03:34 41.5 °F 35 °F 29.62 in West 3.2 mph 12 mph 77.6% 0.00 in 0 W/m2
03:39 41.4 °F 34.7 °F 29.62 in WNW 2 mph 11 mph 77% 0.00 in 0 W/m2
03:44 41.4 °F 34.7 °F 29.62 in WNW 1.1 mph 11 mph 77% 0.00 in 0 W/m2
03:49 41.3 °F 34.7 °F 29.63 in WNW 0.5 mph 11 mph 77% 0.00 in 0 W/m2
03:54 41.2 °F 34.6 °F 29.64 in WNW 0.3 mph 11 mph 77% 0.00 in 0 W/m2
03:59 41.1 °F 34.4 °F 29.64 in WNW 0.7 mph 11 mph 77% 0.00 in 0 W/m2
04:00 41 °F 34.3 °F 29.63 in Calm   11 mph 77% 0.00 in 0 W/m2
04:09 40.9 °F 34.2 °F 29.64 in WNW 3.8 mph 15 mph 76.8% 0.00 in 0 W/m2
04:14 41 °F 33.7 °F 29.64 in WNW 5.4 mph 15 mph 75.1% 0.00 in 0 W/m2
04:19 41.2 °F 33.6 °F 29.64 in WNW 6.3 mph 16 mph 74.2% 0.00 in 0 W/m2
04:24 41.4 °F 33.5 °F 29.65 in WNW 8.1 mph 16 mph 73.2% 0.00 in 0 W/m2
04:29 41.6 °F 33.3 °F 29.65 in WNW 8.7 mph 18 mph 72.1% 0.00 in 0 W/m2
04:34 41.8 °F 33.3 °F 29.65 in WNW 7.5 mph 18 mph 71.7% 0.00 in 0 W/m2
04:39 41.8 °F 33.1 °F 29.66 in WNW 7.1 mph 15 mph 70.9% 0.00 in 0 W/m2
04:44 41.8 °F 32.8 °F 29.66 in WNW 5.8 mph 16 mph 70% 0.00 in 0 W/m2
04:49 41.8 °F 32.7 °F 29.66 in NW 5.8 mph 16 mph 70% 0.00 in 0 W/m2
04:54 41.7 °F 32.6 °F 29.67 in NW 2.8 mph 16 mph 70% 0.00 in 0 W/m2
04:59 41.6 °F 32.5 °F 29.68 in WNW 5.1 mph 16 mph 70% 0.00 in 0 W/m2
05:04 41.4 °F 32.1 °F 29.68 in NW 8.9 mph 20 mph 69.3% 0.00 in 0 W/m2
05:09 41.4 °F 31.6 °F 29.68 in NW 8.3 mph 20 mph 67.8% 0.00 in 0 W/m2
05:14 41.5 °F 31.3 °F 29.68 in NW 10.8 mph 24 mph 66.8% 0.00 in 0 W/m2
05:19 41.4 °F 31.3 °F 29.69 in NW 8.1 mph 24 mph 66.8% 0.00 in 0 W/m2
05:24 41.4 °F 31.2 °F 29.69 in WNW 7 mph 24 mph 66.7% 0.00 in 0 W/m2
05:29 41.3 °F 31.2 °F 29.70 in WNW 2.8 mph 24 mph 67% 0.00 in 0 W/m2
05:34 41.2 °F 31.1 °F 29.70 in WNW 6.9 mph 24 mph 67.2% 0.00 in 0 W/m2
05:38 41 °F 31.3 °F 29.71 in WNW 5.7 mph 16 mph 68% 0.00 in 0 W/m2
05:44 40.9 °F 31.2 °F 29.72 in WNW 10.4 mph 25 mph 68.1% 0.00 in 0 W/m2
05:49 40.9 °F 31.5 °F 29.72 in WNW 11.6 mph 25 mph 69% 0.00 in 0 W/m2
05:54 40.8 °F 31.4 °F 29.72 in WNW 9.1 mph 25 mph 69% 0.00 in 0 W/m2
05:59 40.7 °F 31.7 °F 29.72 in WNW 6.2 mph 25 mph 70% 0.00 in 0 W/m2
06:04 40.6 °F 31.6 °F 29.73 in NW 8.6 mph 25 mph 70% 0.00 in 0 W/m2
06:09 40.4 °F 31.3 °F 29.73 in WNW 9.9 mph 21 mph 69.5% 0.00 in 0 W/m2
06:14 40.4 °F 31.1 °F 29.74 in NW 7.1 mph 21 mph 69.3% 0.00 in 0 W/m2
06:19 40.4 °F 31.1 °F 29.74 in NW 7 mph 21 mph 69.1% 0.00 in 0 W/m2
06:24 40.3 °F 31 °F 29.74 in WNW 5.1 mph 21 mph 69% 0.00 in 0 W/m2
06:29 40.3 °F 30.9 °F 29.74 in WNW 8.9 mph 21 mph 68.8% 0.00 in 0 W/m2
06:34 40.2 °F 30.5 °F 29.74 in NW 6.8 mph 21 mph 67.9% 0.00 in 0 W/m2
06:39 40.2 °F 30.4 °F 29.74 in NW 4.6 mph 14 mph 67.7% 0.00 in 0 W/m2
06:44 40.2 °F 30.5 °F 29.74 in WNW 2.7 mph 14 mph 68% 0.00 in 0 W/m2
06:49 40.1 °F 30.4 °F 29.75 in WNW 0.7 mph 14 mph 67.9% 0.00 in 0 W/m2
06:54 40.1 °F 30.4 °F 29.76 in NW 1.9 mph 14 mph 67.9% 0.00 in 0 W/m2
06:59 40.1 °F 30.3 °F 29.77 in NW 5.3 mph 14 mph 67.7% 0.00 in 0 W/m2
07:04 40 °F 29.9 °F 29.77 in NW 5.4 mph 14 mph 67% 0.00 in 0 W/m2
07:09 40 °F 30 °F 29.77 in NW 2.7 mph 14 mph 67.2% 0.00 in 0 W/m2
07:14 40 °F 30.4 °F 29.77 in WNW 1 mph 14 mph 68.3% 0.00 in 0 W/m2
07:19 39.9 °F 30.5 °F 29.77 in NW 3.2 mph 14 mph 69% 0.00 in 5 W/m2
07:24 39.8 °F 30.6 °F 29.78 in WNW 1.7 mph 14 mph 69.4% 0.00 in 9 W/m2
07:29 39.7 °F 30.6 °F 29.78 in WNW 3.3 mph 14 mph 69.6% 0.00 in 9 W/m2
07:34 39.6 °F 30.2 °F 29.79 in NW 4 mph 14 mph 69% 0.00 in 9 W/m2
07:39 39.5 °F 29.8 °F 29.79 in NW 5.3 mph 15 mph 68% 0.00 in 12 W/m2
07:44 39.4 °F 29.7 °F 29.79 in NW 5.9 mph 15 mph 68% 0.00 in 16 W/m2
07:49 39.3 °F 29.6 °F 29.80 in WNW 3.8 mph 16 mph 68% 0.00 in 16 W/m2
07:54 39.2 °F 29.2 °F 29.80 in WNW 6.3 mph 18 mph 67.1% 0.00 in 21 W/m2
07:59 39.1 °F 28.8 °F 29.80 in NW 10.6 mph 23 mph 66% 0.00 in 23 W/m2
08:00 39.1 °F 28.7 °F 29.80 in WNW 10 mph 23 mph 66% 0.00 in 23 W/m2
08:09 38.9 °F 28.5 °F 29.81 in NW 8.3 mph 15 mph 66% 0.00 in 37 W/m2
08:14 38.9 °F 28.5 °F 29.81 in WNW 4.4 mph 15 mph 66% 0.00 in 42 W/m2
08:19 38.8 °F 28.5 °F 29.81 in WNW 5.3 mph 15 mph 66% 0.00 in 39 W/m2
08:24 38.8 °F 28.4 °F 29.81 in NW 9 mph 23 mph 66% 0.00 in 51 W/m2
08:29 38.8 °F 28.2 °F 29.81 in NW 2.8 mph 23 mph 65.4% 0.00 in 56 W/m2
08:34 38.8 °F 28.1 °F 29.81 in NW 6.7 mph 23 mph 65.1% 0.00 in 54 W/m2
08:39 38.8 °F 28 °F 29.81 in NW 6.9 mph 23 mph 64.9% 0.00 in 72 W/m2
08:44 38.8 °F 27.5 °F 29.81 in WNW 10 mph 23 mph 63.7% 0.00 in 83 W/m2
08:49 38.8 °F 27.7 °F 29.82 in NW 4.1 mph 23 mph 64% 0.00 in 88 W/m2
08:54 38.9 °F 27.8 °F 29.82 in NW 2.4 mph 23 mph 64% 0.00 in 100 W/m2
08:59 39 °F 27.9 °F 29.83 in WNW 1.7 mph 23 mph 64% 0.00 in 93 W/m2
09:04 39.1 °F 27.9 °F 29.83 in NW 7.1 mph 23 mph 63.7% 0.00 in 98 W/m2
09:09 39.2 °F 27.7 °F 29.82 in NW 7 mph 17 mph 63% 0.00 in 95 W/m2
09:14 39.2 °F 27.4 °F 29.83 in WNW 8.2 mph 22 mph 62.3% 0.00 in 102 W/m2
09:19 39.2 °F 27.3 °F 29.83 in NW 5 mph 22 mph 62.1% 0.00 in 98 W/m2
09:24 39.2 °F 27.3 °F 29.83 in NW 8.7 mph 22 mph 62.1% 0.00 in 95 W/m2
09:29 39.3 °F 27.3 °F 29.84 in NW 7.7 mph 22 mph 61.8% 0.00 in 91 W/m2
09:34 39.3 °F 27.1 °F 29.84 in WNW 5.6 mph 22 mph 61.2% 0.00 in 93 W/m2
09:39 39.3 °F 27 °F 29.85 in WNW 7.4 mph 17 mph 61% 0.00 in 86 W/m2
09:44 39.4 °F 27.1 °F 29.86 in WNW 6 mph 17 mph 61% 0.00 in 70 W/m2
09:49 39.4 °F 27.2 °F 29.85 in WNW 3.6 mph 17 mph 61.2% 0.00 in 88 W/m2
09:54 39.5 °F 27.6 °F 29.86 in NW 4.5 mph 17 mph 62% 0.00 in 105 W/m2
09:59 39.6 °F 27.4 °F 29.86 in WNW 8.5 mph 19 mph 61.4% 0.00 in 107 W/m2
10:04 39.7 °F 27.4 °F 29.86 in WNW 7.2 mph 19 mph 61% 0.00 in 113 W/m2
10:09 39.9 °F 27.6 °F 29.86 in WNW 8.7 mph 18 mph 61% 0.00 in 454 W/m2
10:14 40.2 °F 27.8 °F 29.86 in WNW 5.7 mph 18 mph 61% 0.00 in 158 W/m2
10:19 40.4 °F 28.1 °F 29.86 in WNW 4.7 mph 18 mph 61.1% 0.00 in 178 W/m2
10:24 40.6 °F 28.3 °F 29.87 in WNW 8.8 mph 18 mph 61.2% 0.00 in 162 W/m2
10:29 40.6 °F 28 °F 29.86 in NW 6.7 mph 18 mph 60.4% 0.00 in 153 W/m2
10:34 40.6 °F 28 °F 29.86 in NW 7.9 mph 18 mph 60.5% 0.00 in 163 W/m2
10:39 40.6 °F 28.2 °F 29.86 in NW 5.9 mph 18 mph 61% 0.00 in 304 W/m2
10:44 41 °F 28.9 °F 29.86 in WNW 9.2 mph 24 mph 61.7% 0.00 in 497 W/m2
10:49 41.5 °F 28.7 °F 29.86 in NW 10.3 mph 24 mph 60% 0.00 in 213 W/m2
10:54 41.6 °F 28.4 °F 29.85 in NW 10.3 mph 24 mph 59.1% 0.00 in 190 W/m2
10:59 41.8 °F 28.9 °F 29.85 in NW 6 mph 24 mph 60% 0.00 in 193 W/m2
11:04 42.1 °F 28.5 °F 29.85 in WNW 9.7 mph 24 mph 58.3% 0.00 in 181 W/m2
11:09 42.1 °F 28.3 °F 29.85 in NW 12 mph 23 mph 57.8% 0.00 in 165 W/m2
11:14 42.1 °F 28.3 °F 29.85 in NW 8.7 mph 23 mph 57.7% 0.00 in 193 W/m2
11:19 42.3 °F 28.4 °F 29.85 in WNW 10.4 mph 23 mph 57.4% 0.00 in 195 W/m2
11:24 42.6 °F 28.4 °F 29.85 in NW 9.4 mph 23 mph 56.8% 0.00 in 274 W/m2
11:29 42.9 °F 28.4 °F 29.85 in NW 9.4 mph 23 mph 56.3% 0.00 in 243 W/m2
11:34 43 °F 28 °F 29.85 in WNW 12.4 mph 23 mph 55.1% 0.00 in 383 W/m2
11:39 43.1 °F 27.9 °F 29.85 in WNW 15.4 mph 28 mph 54.8% 0.00 in 353 W/m2
11:44 43 °F 27.9 °F 29.85 in NW 11.4 mph 28 mph 55% 0.00 in 320 W/m2
11:49 42.9 °F 28.1 °F 29.85 in NW 8.5 mph 28 mph 55.5% 0.00 in 376 W/m2
11:54 43.1 °F 27.9 °F 29.84 in WNW 12 mph 28 mph 54.8% 0.00 in 376 W/m2
11:59 43 °F 27.6 °F 29.84 in NW 10.8 mph 28 mph 54.2% 0.00 in 306 W/m2
12:00 42.8 °F 27.8 °F 29.84 in WNW 13 mph 28 mph 55% 0.00 in 306 W/m2
12:09 42.6 °F 28 °F 29.84 in NW 9.2 mph 20 mph 56% 0.00 in 309 W/m2
12:14 42.7 °F 28.1 °F 29.84 in NW 8 mph 20 mph 56% 0.00 in 313 W/m2
12:19 42.8 °F 28.1 °F 29.84 in NW 7.1 mph 21 mph 55.7% 0.00 in 283 W/m2
12:24 42.8 °F 27.8 °F 29.84 in NW 9.2 mph 22 mph 55.1% 0.00 in 142 W/m2
12:29 42.5 °F 27.9 °F 29.85 in NW 9.1 mph 22 mph 56.1% 0.00 in 250 W/m2
12:34 42.5 °F 28.4 °F 29.85 in WNW 7.7 mph 22 mph 57% 0.00 in 519 W/m2
12:39 42.8 °F 28.6 °F 29.84 in NW 8.3 mph 16 mph 57% 0.00 in 199 W/m2
12:44 42.8 °F 28.7 °F 29.84 in WNW 3.7 mph 16 mph 57% 0.00 in 246 W/m2
12:49 43.1 °F 28.8 °F 29.84 in NW 7 mph 17 mph 56.6% 0.00 in 262 W/m2
12:54 43.2 °F 28 °F 29.84 in NW 10.5 mph 22 mph 54.8% 0.00 in 209 W/m2
12:59 42.9 °F 27.7 °F 29.84 in NW 7 mph 22 mph 54.6% 0.00 in 206 W/m2
13:04 42.9 °F 27.9 °F 29.85 in WNW 6.8 mph 22 mph 54.9% 0.00 in 302 W/m2
13:09 43 °F 27.6 °F 29.85 in NW 10.9 mph 21 mph 54.1% 0.00 in 155 W/m2
13:14 42.9 °F 27.4 °F 29.85 in WNW 8 mph 21 mph 53.9% 0.00 in 81 W/m2
13:19 42.9 °F 27.5 °F 29.85 in NW 7.8 mph 21 mph 54.1% 0.00 in 137 W/m2
13:24 42.9 °F 27.2 °F 29.85 in NW 8.4 mph 21 mph 53.5% 0.00 in 102 W/m2
13:29 42.7 °F 27 °F 29.85 in WNW 11.6 mph 22 mph 53.5% 0.00 in 192 W/m2
13:34 42.7 °F 27.2 °F 29.85 in WNW 9.3 mph 22 mph 54% 0.00 in 304 W/m2
13:39 42.8 °F 27.3 °F 29.85 in NW 7.5 mph 18 mph 54% 0.00 in 304 W/m2
13:44 42.8 °F 27.2 °F 29.86 in WNW 6.7 mph 18 mph 53.7% 0.00 in 232 W/m2
13:49 42.9 °F 27 °F 29.86 in NW 5.6 mph 18 mph 53% 0.00 in 287 W/m2
13:54 43.1 °F 27.5 °F 29.86 in WNW 6.2 mph 18 mph 53.6% 0.00 in 257 W/m2
13:59 43.4 °F 26.8 °F 29.86 in WNW 10.6 mph 19 mph 51.8% 0.00 in 236 W/m2
14:04 43.3 °F 26.3 °F 29.87 in NW 7.7 mph 19 mph 50.8% 0.00 in 158 W/m2
14:09 43.2 °F 26.5 °F 29.87 in NW 9.5 mph 17 mph 51.3% 0.00 in 214 W/m2
14:14 43.2 °F 26.3 °F 29.87 in NW 5.4 mph 18 mph 50.9% 0.00 in 144 W/m2
14:19 43.2 °F 26.1 °F 29.87 in WNW 8.3 mph 18 mph 50.5% 0.00 in 67 W/m2
14:24 43.3 °F 25.7 °F 29.87 in WNW 9.9 mph 20 mph 49.5% 0.00 in 39 W/m2
14:29 43.1 °F 25.1 °F 29.88 in WNW 6.5 mph 20 mph 48.7% 0.00 in 132 W/m2
14:34 43 °F 24.7 °F 29.88 in WNW 6.8 mph 20 mph 48.1% 0.00 in 132 W/m2
14:39 43 °F 25 °F 29.88 in WNW 6.3 mph 17 mph 48.7% 0.00 in 26 W/m2
14:44 43 °F 25.3 °F 29.88 in WNW 7.2 mph 17 mph 49.4% 0.00 in 26 W/m2
14:49 42.8 °F 25.6 °F 29.88 in NW 4.5 mph 17 mph 50.3% 0.00 in 25 W/m2
14:54 42.6 °F 25.5 °F 29.88 in NW 5.6 mph 17 mph 50.5% 0.00 in 25 W/m2
14:59 42.4 °F 25.6 °F 29.88 in NW 6.4 mph 17 mph 51% 0.00 in 23 W/m2
15:04 42.2 °F 25.5 °F 29.88 in WNW 7 mph 21 mph 51.4% 0.00 in 23 W/m2
15:09 42 °F 25.1 °F 29.88 in WNW 5.9 mph 21 mph 50.8% 0.00 in 21 W/m2
15:14 41.8 °F 25.1 °F 29.88 in WNW 6.3 mph 21 mph 51% 0.00 in 21 W/m2
15:19 41.7 °F 25 °F 29.89 in NW 3.5 mph 21 mph 51% 0.00 in 19 W/m2
15:24 41.6 °F 24.9 °F 29.89 in NW 5.8 mph 21 mph 51.2% 0.00 in 19 W/m2
15:29 41.4 °F 24.6 °F 29.89 in WNW 6.8 mph 21 mph 51% 0.00 in 18 W/m2
15:34 41.2 °F 24.4 °F 29.90 in WNW 4.7 mph 21 mph 51% 0.00 in 18 W/m2
15:39 41 °F 24.3 °F 29.90 in WNW 5.1 mph 20 mph 51% 0.00 in 16 W/m2
15:44 40.9 °F 24.2 °F 29.91 in NW 6.7 mph 20 mph 51% 0.00 in 14 W/m2
15:49 40.7 °F 24 °F 29.90 in WNW 7.4 mph 20 mph 51% 0.00 in 12 W/m2
15:54 40.6 °F 23.9 °F 29.90 in WNW 3.9 mph 20 mph 51% 0.00 in 12 W/m2
15:59 40.5 °F 23.8 °F 29.91 in WNW 7.1 mph 20 mph 51% 0.00 in 11 W/m2
16:00 40.4 °F 23.7 °F 29.90 in WNW 1 mph 20 mph 51% 0.00 in 9 W/m2
16:09 40.1 °F 23.5 °F 29.92 in NW 4.6 mph 14 mph 51.1% 0.00 in 7 W/m2
16:14 39.9 °F 23.5 °F 29.92 in NW 3.2 mph 14 mph 51.5% 0.00 in 5 W/m2
16:19 39.7 °F 23.3 °F 29.92 in WNW 4 mph 15 mph 51.3% 0.00 in 0 W/m2
16:24 39.6 °F 22.9 °F 29.92 in WNW 2.8 mph 15 mph 51% 0.00 in 0 W/m2
16:29 39.4 °F 23 °F 29.93 in NW 2.3 mph 15 mph 51.4% 0.00 in 0 W/m2
16:34 39.2 °F 23.1 °F 29.93 in NNW 3.8 mph 16 mph 51.9% 0.00 in 0 W/m2
16:39 39.1 °F 22.9 °F 29.93 in NW 4 mph 16 mph 52% 0.00 in 0 W/m2
16:44 38.9 °F 22.8 °F 29.94 in WNW 4 mph 16 mph 52% 0.00 in 0 W/m2
16:49 38.8 °F 22.7 °F 29.94 in NW 1.8 mph 16 mph 52% 0.00 in 0 W/m2
16:54 38.6 °F 22.5 °F 29.94 in NW 3 mph 16 mph 52% 0.00 in 0 W/m2
16:59 38.5 °F 22.4 °F 29.94 in NW 3.1 mph 16 mph 52% 0.00 in 0 W/m2
17:04 38.4 °F 22.7 °F 29.95 in WNW 2.2 mph 16 mph 52.8% 0.00 in 0 W/m2
17:09 38.2 °F 22.6 °F 29.95 in NW 1.7 mph 9 mph 53% 0.00 in 0 W/m2
17:14 38.1 °F 22.5 °F 29.95 in WNW 0.2 mph 9 mph 53% 0.00 in 0 W/m2
17:19 37.9 °F 22.7 °F 29.95 in WNW 0.7 mph 9 mph 53.7% 0.00 in 0 W/m2
17:24 37.8 °F 22.6 °F 29.95 in NW 0.3 mph 9 mph 54% 0.00 in 0 W/m2
17:29 37.6 °F 22.4 °F 29.96 in Calm   9 mph 54% 0.00 in 0 W/m2
17:34 37.4 °F 22.3 °F 29.96 in NW 0.6 mph 9 mph 54.1% 0.00 in 0 W/m2
17:39 37.2 °F 22.5 °F 29.96 in Calm   6 mph 55% 0.00 in 0 W/m2
17:44 37 °F 22.1 °F 29.96 in Calm   6 mph 54.5% 0.00 in 0 W/m2
17:49 36.8 °F 22.2 °F 29.96 in Calm   6 mph 55% 0.00 in 0 W/m2
17:54 36.7 °F 22.2 °F 29.96 in NW 0.2 mph 6 mph 55.3% 0.00 in 0 W/m2
17:59 36.5 °F 22.3 °F 29.96 in NW 0.3 mph 6 mph 56% 0.00 in 0 W/m2
18:04 36.3 °F 22.3 °F 29.97 in Calm   6 mph 56.5% 0.00 in 0 W/m2
18:09 36.1 °F 22.2 °F 29.97 in Calm     56.5% 0.00 in 0 W/m2
18:13 36 °F 21.8 °F 29.97 in NW 0.5 mph 3 mph 56% 0.00 in 0 W/m2
Hartford County Weather
Compliments of Weather Underground - 2 mb